LFBE/EGC METAR and TAF weather

Enter ICAO airport designator
Station Type Date Time Source
LFBE METAR 2021/09/25 13:00 UTC NOAA

LFBE 251300Z AUTO 19004KT 150V260 CAVOK 27/17 Q1014 TEMPO 4000 SHRA FEW030CB BKN050TCU


Station Type Date Time Source
LFBE Decoded METAR 2021/09/25 13:00 UTC NOAA

Bergerac, France (LFBE) 44-49N 000-31E 52M
Sep 25, 2021 - 09:00 AM EDT / 2021.09.25 1300 UTC
Wind: from the S (190 degrees) at 5 MPH (4 KT) (direction variable):0
Visibility: greater than 7 mile(s):0
Weather: Cumulonimbus clouds, towering cumulus clouds observed
Temperature: 80 F (27 C)
Dew Point: 62 F (17 C)
Relative Humidity: 54%
Pressure (altimeter): 29.94 in. Hg (1014 hPa)
ob: LFBE 251300Z AUTO 19004KT 150V260 CAVOK 27/17 Q1014 TEMPO 4000 SHRA FEW030CB BKN050TCU
cycle: 13

Station Type Date Time Source
LFBE TAF 2021/09/25 12:48 UTC NOAA

TAF LFBE 251100Z 2512/2612 15010KT 9999 FEW025 PROB30
TEMPO 2512/2514 FEW040CB SCT050TCU
TEMPO 2514/2602 4000 SHRA FEW030CB BKN050TCU PROB40
TEMPO 2515/2522 VRB15G35KT 2000 TSGSRA BKN010 BKN020CB PROB30
TEMPO 2515/2517 1000 TSGR PROB30
TEMPO 2602/2612 -SHRA BKN007 BKN020TCU

Example: see airport list